sensor_id;sensor_type;location;lat;lon;timestamp;P1;durP1;ratioP1;P2;durP2;ratioP2
9722;SDS011;4900;49.306;8.500;2024-03-02T00:00:22;17.60;;;11.97;;
9722;SDS011;4900;49.306;8.500;2024-03-02T00:02:51;18.50;;;12.30;;
9722;SDS011;4900;49.306;8.500;2024-03-02T00:05:22;17.03;;;12.00;;
9722;SDS011;4900;49.306;8.500;2024-03-02T00:07:52;19.73;;;13.03;;
9722;SDS011;4900;49.306;8.500;2024-03-02T00:10:24;17.30;;;12.60;;
9722;SDS011;4900;49.306;8.500;2024-03-02T00:12:55;17.83;;;12.70;;
9722;SDS011;4900;49.306;8.500;2024-03-02T00:18:16;17.87;;;12.00;;
9722;SDS011;4900;49.306;8.500;2024-03-02T00:20:44;17.00;;;11.73;;
9722;SDS011;4900;49.306;8.500;2024-03-02T00:23:10;17.27;;;12.37;;
9722;SDS011;4900;49.306;8.500;2024-03-02T00:28:27;16.60;;;11.80;;
9722;SDS011;4900;49.306;8.500;2024-03-02T00:30:59;16.83;;;11.57;;
9722;SDS011;4900;49.306;8.500;2024-03-02T00:36:07;16.80;;;12.00;;
9722;SDS011;4900;49.306;8.500;2024-03-02T00:38:34;16.97;;;12.53;;
9722;SDS011;4900;49.306;8.500;2024-03-02T00:41:05;16.93;;;10.93;;
9722;SDS011;4900;49.306;8.500;2024-03-02T00:43:45;14.63;;;10.30;;
9722;SDS011;4900;49.306;8.500;2024-03-02T00:46:20;16.43;;;11.47;;
9722;SDS011;4900;49.306;8.500;2024-03-02T00:51:45;15.23;;;11.27;;
9722;SDS011;4900;49.306;8.500;2024-03-02T00:54:13;15.57;;;10.77;;
9722;SDS011;4900;49.306;8.500;2024-03-02T00:56:39;15.20;;;11.43;;
9722;SDS011;4900;49.306;8.500;2024-03-02T00:59:06;17.80;;;12.00;;
9722;SDS011;4900;49.306;8.500;2024-03-02T01:01:33;15.77;;;10.80;;
9722;SDS011;4900;49.306;8.500;2024-03-02T01:03:59;16.73;;;11.10;;
9722;SDS011;4900;49.306;8.500;2024-03-02T01:06:25;17.03;;;11.33;;
9722;SDS011;4900;49.306;8.500;2024-03-02T01:08:50;16.93;;;10.80;;
9722;SDS011;4900;49.306;8.500;2024-03-02T01:11:16;16.67;;;11.67;;
9722;SDS011;4900;49.306;8.500;2024-03-02T01:13:43;15.27;;;10.60;;
9722;SDS011;4900;49.306;8.500;2024-03-02T01:16:09;16.20;;;11.30;;
9722;SDS011;4900;49.306;8.500;2024-03-02T01:18:34;17.07;;;11.30;;
9722;SDS011;4900;49.306;8.500;2024-03-02T01:21:00;15.73;;;11.27;;
9722;SDS011;4900;49.306;8.500;2024-03-02T01:23:25;18.03;;;12.33;;
9722;SDS011;4900;49.306;8.500;2024-03-02T01:25:51;16.60;;;11.67;;
9722;SDS011;4900;49.306;8.500;2024-03-02T01:28:17;17.07;;;11.57;;
9722;SDS011;4900;49.306;8.500;2024-03-02T01:30:43;16.23;;;11.50;;
9722;SDS011;4900;49.306;8.500;2024-03-02T01:33:09;18.00;;;12.20;;
9722;SDS011;4900;49.306;8.500;2024-03-02T01:35:34;17.97;;;11.93;;
9722;SDS011;4900;49.306;8.500;2024-03-02T01:38:00;14.63;;;11.00;;
9722;SDS011;4900;49.306;8.500;2024-03-02T01:40:26;16.43;;;11.20;;
9722;SDS011;4900;49.306;8.500;2024-03-02T01:42:52;18.37;;;12.50;;
9722;SDS011;4900;49.306;8.500;2024-03-02T01:45:23;16.43;;;12.00;;
9722;SDS011;4900;49.306;8.500;2024-03-02T01:47:49;15.43;;;11.30;;
9722;SDS011;4900;49.306;8.500;2024-03-02T01:50:15;17.13;;;11.90;;
9722;SDS011;4900;49.306;8.500;2024-03-02T01:52:42;17.17;;;11.40;;
9722;SDS011;4900;49.306;8.500;2024-03-02T01:55:09;16.43;;;11.33;;
9722;SDS011;4900;49.306;8.500;2024-03-02T01:57:34;18.00;;;12.37;;
9722;SDS011;4900;49.306;8.500;2024-03-02T02:00:00;19.30;;;12.13;;
9722;SDS011;4900;49.306;8.500;2024-03-02T02:02:26;18.13;;;12.37;;
9722;SDS011;4900;49.306;8.500;2024-03-02T02:04:52;17.83;;;11.90;;
9722;SDS011;4900;49.306;8.500;2024-03-02T02:07:17;18.97;;;12.27;;
9722;SDS011;4900;49.306;8.500;2024-03-02T02:09:43;15.97;;;11.57;;
9722;SDS011;4900;49.306;8.500;2024-03-02T02:12:09;16.77;;;11.50;;
9722;SDS011;4900;49.306;8.500;2024-03-02T02:14:36;16.33;;;11.20;;
9722;SDS011;4900;49.306;8.500;2024-03-02T02:17:02;17.50;;;11.80;;
9722;SDS011;4900;49.306;8.500;2024-03-02T02:19:27;16.90;;;12.20;;
9722;SDS011;4900;49.306;8.500;2024-03-02T02:21:53;17.13;;;11.90;;
9722;SDS011;4900;49.306;8.500;2024-03-02T02:24:19;15.93;;;11.17;;
9722;SDS011;4900;49.306;8.500;2024-03-02T02:26:44;15.50;;;11.37;;
9722;SDS011;4900;49.306;8.500;2024-03-02T02:29:09;15.00;;;10.67;;
9722;SDS011;4900;49.306;8.500;2024-03-02T02:31:38;18.83;;;11.87;;
9722;SDS011;4900;49.306;8.500;2024-03-02T02:34:07;17.53;;;11.17;;
9722;SDS011;4900;49.306;8.500;2024-03-02T02:36:34;15.20;;;11.10;;
9722;SDS011;4900;49.306;8.500;2024-03-02T02:39:03;16.50;;;11.50;;
9722;SDS011;4900;49.306;8.500;2024-03-02T02:41:31;14.83;;;10.83;;
9722;SDS011;4900;49.306;8.500;2024-03-02T02:43:57;17.30;;;10.83;;
9722;SDS011;4900;49.306;8.500;2024-03-02T02:46:22;15.47;;;10.87;;
9722;SDS011;4900;49.306;8.500;2024-03-02T02:48:48;14.73;;;10.50;;
9722;SDS011;4900;49.306;8.500;2024-03-02T02:51:13;15.20;;;10.43;;
9722;SDS011;4900;49.306;8.500;2024-03-02T02:53:38;14.03;;;10.30;;
9722;SDS011;4900;49.306;8.500;2024-03-02T02:56:06;14.10;;;10.07;;
9722;SDS011;4900;49.306;8.500;2024-03-02T02:58:32;14.83;;;10.50;;
9722;SDS011;4900;49.306;8.500;2024-03-02T03:00:57;15.53;;;10.03;;
9722;SDS011;4900;49.306;8.500;2024-03-02T03:03:23;14.07;;;10.10;;
9722;SDS011;4900;49.306;8.500;2024-03-02T03:05:48;15.10;;;10.60;;
9722;SDS011;4900;49.306;8.500;2024-03-02T03:08:14;18.67;;;10.77;;
9722;SDS011;4900;49.306;8.500;2024-03-02T03:10:40;16.83;;;11.00;;
9722;SDS011;4900;49.306;8.500;2024-03-02T03:13:06;15.53;;;10.77;;
9722;SDS011;4900;49.306;8.500;2024-03-02T03:15:34;15.33;;;11.07;;
9722;SDS011;4900;49.306;8.500;2024-03-02T03:18:00;17.27;;;10.87;;
9722;SDS011;4900;49.306;8.500;2024-03-02T03:20:25;15.90;;;10.87;;
9722;SDS011;4900;49.306;8.500;2024-03-02T03:22:50;13.33;;;10.03;;
9722;SDS011;4900;49.306;8.500;2024-03-02T03:25:16;15.97;;;11.17;;
9722;SDS011;4900;49.306;8.500;2024-03-02T03:27:41;15.37;;;10.27;;
9722;SDS011;4900;49.306;8.500;2024-03-02T03:30:07;17.50;;;11.70;;
9722;SDS011;4900;49.306;8.500;2024-03-02T03:32:32;15.17;;;10.93;;
9722;SDS011;4900;49.306;8.500;2024-03-02T03:34:58;13.70;;;10.43;;
9722;SDS011;4900;49.306;8.500;2024-03-02T03:37:23;15.83;;;11.27;;
9722;SDS011;4900;49.306;8.500;2024-03-02T03:39:51;17.43;;;11.20;;
9722;SDS011;4900;49.306;8.500;2024-03-02T03:42:17;18.20;;;11.70;;
9722;SDS011;4900;49.306;8.500;2024-03-02T03:44:42;17.20;;;12.00;;
9722;SDS011;4900;49.306;8.500;2024-03-02T03:47:08;17.10;;;11.40;;
9722;SDS011;4900;49.306;8.500;2024-03-02T03:49:33;15.70;;;11.47;;
9722;SDS011;4900;49.306;8.500;2024-03-02T03:51:59;17.07;;;11.33;;
9722;SDS011;4900;49.306;8.500;2024-03-02T03:54:24;17.83;;;11.23;;
9722;SDS011;4900;49.306;8.500;2024-03-02T03:56:49;17.83;;;11.73;;
9722;SDS011;4900;49.306;8.500;2024-03-02T03:59:15;16.00;;;11.33;;
9722;SDS011;4900;49.306;8.500;2024-03-02T04:01:40;19.50;;;12.20;;
9722;SDS011;4900;49.306;8.500;2024-03-02T04:04:06;17.77;;;12.03;;
9722;SDS011;4900;49.306;8.500;2024-03-02T04:06:32;17.60;;;11.83;;
9722;SDS011;4900;49.306;8.500;2024-03-02T04:08:57;15.33;;;10.37;;
9722;SDS011;4900;49.306;8.500;2024-03-02T04:11:23;13.27;;;9.97;;
9722;SDS011;4900;49.306;8.500;2024-03-02T04:13:48;16.47;;;11.63;;
9722;SDS011;4900;49.306;8.500;2024-03-02T04:16:14;15.73;;;10.40;;
9722;SDS011;4900;49.306;8.500;2024-03-02T04:18:39;14.70;;;10.53;;
9722;SDS011;4900;49.306;8.500;2024-03-02T04:21:05;14.53;;;9.97;;
9722;SDS011;4900;49.306;8.500;2024-03-02T04:23:30;15.27;;;10.70;;
9722;SDS011;4900;49.306;8.500;2024-03-02T04:25:56;12.90;;;9.57;;
9722;SDS011;4900;49.306;8.500;2024-03-02T04:28:21;15.30;;;11.33;;
9722;SDS011;4900;49.306;8.500;2024-03-02T04:30:47;16.83;;;11.27;;
9722;SDS011;4900;49.306;8.500;2024-03-02T04:33:12;14.87;;;10.20;;
9722;SDS011;4900;49.306;8.500;2024-03-02T04:35:38;14.03;;;9.97;;
9722;SDS011;4900;49.306;8.500;2024-03-02T04:38:03;14.70;;;9.80;;
9722;SDS011;4900;49.306;8.500;2024-03-02T04:40:29;14.83;;;10.00;;
9722;SDS011;4900;49.306;8.500;2024-03-02T04:42:54;14.27;;;9.53;;
9722;SDS011;4900;49.306;8.500;2024-03-02T04:45:19;14.67;;;10.20;;
9722;SDS011;4900;49.306;8.500;2024-03-02T04:47:45;14.23;;;10.30;;
9722;SDS011;4900;49.306;8.500;2024-03-02T04:50:10;14.80;;;10.23;;
9722;SDS011;4900;49.306;8.500;2024-03-02T04:52:36;14.63;;;10.03;;
9722;SDS011;4900;49.306;8.500;2024-03-02T04:55:02;13.00;;;9.40;;
9722;SDS011;4900;49.306;8.500;2024-03-02T04:57:43;14.07;;;9.20;;
9722;SDS011;4900;49.306;8.500;2024-03-02T05:00:08;15.47;;;10.07;;
9722;SDS011;4900;49.306;8.500;2024-03-02T05:02:35;14.70;;;9.83;;
9722;SDS011;4900;49.306;8.500;2024-03-02T05:05:00;13.17;;;9.37;;
9722;SDS011;4900;49.306;8.500;2024-03-02T05:07:27;14.33;;;9.57;;
9722;SDS011;4900;49.306;8.500;2024-03-02T05:09:52;13.27;;;9.17;;
9722;SDS011;4900;49.306;8.500;2024-03-02T05:12:18;15.67;;;9.37;;
9722;SDS011;4900;49.306;8.500;2024-03-02T05:15:02;12.67;;;8.93;;
9722;SDS011;4900;49.306;8.500;2024-03-02T05:17:28;14.27;;;9.07;;
9722;SDS011;4900;49.306;8.500;2024-03-02T05:19:53;15.23;;;10.17;;
9722;SDS011;4900;49.306;8.500;2024-03-02T05:22:18;13.03;;;9.63;;
9722;SDS011;4900;49.306;8.500;2024-03-02T05:24:44;11.70;;;8.73;;
9722;SDS011;4900;49.306;8.500;2024-03-02T05:27:09;15.00;;;9.77;;
9722;SDS011;4900;49.306;8.500;2024-03-02T05:29:35;13.47;;;9.83;;
9722;SDS011;4900;49.306;8.500;2024-03-02T05:32:00;14.07;;;9.80;;
9722;SDS011;4900;49.306;8.500;2024-03-02T05:34:25;14.17;;;10.13;;
9722;SDS011;4900;49.306;8.500;2024-03-02T05:36:51;15.33;;;10.07;;
9722;SDS011;4900;49.306;8.500;2024-03-02T05:39:16;15.23;;;10.33;;
9722;SDS011;4900;49.306;8.500;2024-03-02T05:41:42;16.47;;;11.10;;
9722;SDS011;4900;49.306;8.500;2024-03-02T05:44:07;17.23;;;11.03;;
9722;SDS011;4900;49.306;8.500;2024-03-02T05:46:32;17.20;;;11.53;;
9722;SDS011;4900;49.306;8.500;2024-03-02T05:48:59;17.00;;;11.23;;
9722;SDS011;4900;49.306;8.500;2024-03-02T05:51:25;20.27;;;12.70;;
9722;SDS011;4900;49.306;8.500;2024-03-02T05:53:50;19.13;;;12.23;;
9722;SDS011;4900;49.306;8.500;2024-03-02T05:56:16;17.90;;;11.77;;
9722;SDS011;4900;49.306;8.500;2024-03-02T05:58:41;17.43;;;11.87;;
9722;SDS011;4900;49.306;8.500;2024-03-02T06:01:25;17.43;;;11.97;;
9722;SDS011;4900;49.306;8.500;2024-03-02T06:03:56;17.00;;;12.30;;
9722;SDS011;4900;49.306;8.500;2024-03-02T06:06:25;18.60;;;12.47;;
9722;SDS011;4900;49.306;8.500;2024-03-02T06:08:51;16.57;;;11.67;;
9722;SDS011;4900;49.306;8.500;2024-03-02T06:11:16;19.60;;;12.83;;
9722;SDS011;4900;49.306;8.500;2024-03-02T06:13:42;19.03;;;12.47;;
9722;SDS011;4900;49.306;8.500;2024-03-02T06:16:07;17.27;;;11.90;;
9722;SDS011;4900;49.306;8.500;2024-03-02T06:18:33;18.23;;;12.17;;
9722;SDS011;4900;49.306;8.500;2024-03-02T06:20:59;19.03;;;12.70;;
9722;SDS011;4900;49.306;8.500;2024-03-02T06:23:26;17.80;;;12.30;;
9722;SDS011;4900;49.306;8.500;2024-03-02T06:25:51;19.10;;;12.67;;
9722;SDS011;4900;49.306;8.500;2024-03-02T06:28:17;16.97;;;11.60;;
9722;SDS011;4900;49.306;8.500;2024-03-02T06:30:44;18.80;;;13.00;;
9722;SDS011;4900;49.306;8.500;2024-03-02T06:33:10;19.17;;;12.30;;
9722;SDS011;4900;49.306;8.500;2024-03-02T06:35:35;18.73;;;12.87;;
9722;SDS011;4900;49.306;8.500;2024-03-02T06:38:01;16.97;;;11.70;;
9722;SDS011;4900;49.306;8.500;2024-03-02T06:40:27;19.57;;;12.17;;
9722;SDS011;4900;49.306;8.500;2024-03-02T06:42:52;18.73;;;12.20;;
9722;SDS011;4900;49.306;8.500;2024-03-02T06:45:18;17.67;;;12.40;;
9722;SDS011;4900;49.306;8.500;2024-03-02T06:47:43;21.53;;;13.43;;
9722;SDS011;4900;49.306;8.500;2024-03-02T06:50:09;19.50;;;12.53;;
9722;SDS011;4900;49.306;8.500;2024-03-02T06:52:34;18.73;;;12.33;;
9722;SDS011;4900;49.306;8.500;2024-03-02T06:55:01;20.43;;;13.60;;
9722;SDS011;4900;49.306;8.500;2024-03-02T06:57:26;21.03;;;14.00;;
9722;SDS011;4900;49.306;8.500;2024-03-02T06:59:52;23.17;;;13.93;;
9722;SDS011;4900;49.306;8.500;2024-03-02T07:02:20;18.73;;;12.63;;
9722;SDS011;4900;49.306;8.500;2024-03-02T07:04:46;21.37;;;15.07;;
9722;SDS011;4900;49.306;8.500;2024-03-02T07:07:12;18.60;;;13.20;;
9722;SDS011;4900;49.306;8.500;2024-03-02T07:09:38;21.07;;;13.90;;
9722;SDS011;4900;49.306;8.500;2024-03-02T07:12:03;21.17;;;13.40;;
9722;SDS011;4900;49.306;8.500;2024-03-02T07:14:29;18.50;;;12.30;;
9722;SDS011;4900;49.306;8.500;2024-03-02T07:17:13;18.30;;;12.03;;
9722;SDS011;4900;49.306;8.500;2024-03-02T07:19:40;19.90;;;13.13;;
9722;SDS011;4900;49.306;8.500;2024-03-02T07:22:08;19.57;;;12.83;;
9722;SDS011;4900;49.306;8.500;2024-03-02T07:24:43;18.43;;;12.73;;
9722;SDS011;4900;49.306;8.500;2024-03-02T07:27:11;22.13;;;14.57;;
9722;SDS011;4900;49.306;8.500;2024-03-02T07:29:37;23.97;;;16.83;;
9722;SDS011;4900;49.306;8.500;2024-03-02T07:32:03;24.83;;;18.57;;
9722;SDS011;4900;49.306;8.500;2024-03-02T07:34:30;23.87;;;16.27;;
9722;SDS011;4900;49.306;8.500;2024-03-02T07:36:55;25.20;;;16.50;;
9722;SDS011;4900;49.306;8.500;2024-03-02T07:39:21;20.20;;;14.90;;
9722;SDS011;4900;49.306;8.500;2024-03-02T07:41:47;21.63;;;14.73;;
9722;SDS011;4900;49.306;8.500;2024-03-02T07:44:13;21.33;;;14.07;;
9722;SDS011;4900;49.306;8.500;2024-03-02T07:46:42;22.73;;;14.60;;
9722;SDS011;4900;49.306;8.500;2024-03-02T07:49:09;22.07;;;14.57;;
9722;SDS011;4900;49.306;8.500;2024-03-02T07:51:34;22.83;;;15.27;;
9722;SDS011;4900;49.306;8.500;2024-03-02T07:54:01;25.47;;;16.10;;
9722;SDS011;4900;49.306;8.500;2024-03-02T07:56:30;26.30;;;16.73;;
9722;SDS011;4900;49.306;8.500;2024-03-02T07:58:55;27.57;;;17.53;;
9722;SDS011;4900;49.306;8.500;2024-03-02T08:01:26;24.87;;;16.43;;
9722;SDS011;4900;49.306;8.500;2024-03-02T08:03:53;26.27;;;17.80;;
9722;SDS011;4900;49.306;8.500;2024-03-02T08:06:18;25.13;;;16.83;;
9722;SDS011;4900;49.306;8.500;2024-03-02T08:08:46;24.60;;;16.07;;
9722;SDS011;4900;49.306;8.500;2024-03-02T08:11:12;20.70;;;14.73;;
9722;SDS011;4900;49.306;8.500;2024-03-02T08:13:37;20.37;;;14.80;;
9722;SDS011;4900;49.306;8.500;2024-03-02T08:16:03;20.23;;;14.23;;
9722;SDS011;4900;49.306;8.500;2024-03-02T08:18:31;21.17;;;15.10;;
9722;SDS011;4900;49.306;8.500;2024-03-02T08:20:58;21.17;;;15.00;;
9722;SDS011;4900;49.306;8.500;2024-03-02T08:23:24;20.03;;;14.60;;
9722;SDS011;4900;49.306;8.500;2024-03-02T08:25:49;19.30;;;14.27;;
9722;SDS011;4900;49.306;8.500;2024-03-02T08:28:15;22.27;;;16.00;;
9722;SDS011;4900;49.306;8.500;2024-03-02T08:30:40;19.40;;;14.33;;
9722;SDS011;4900;49.306;8.500;2024-03-02T08:33:06;19.07;;;14.03;;
9722;SDS011;4900;49.306;8.500;2024-03-02T08:35:31;18.50;;;13.50;;
9722;SDS011;4900;49.306;8.500;2024-03-02T08:38:01;18.00;;;13.37;;
9722;SDS011;4900;49.306;8.500;2024-03-02T08:40:28;15.83;;;12.67;;
9722;SDS011;4900;49.306;8.500;2024-03-02T08:42:54;15.47;;;12.30;;
9722;SDS011;4900;49.306;8.500;2024-03-02T08:45:20;15.88;;;11.35;;
9722;SDS011;4900;49.306;8.500;2024-03-02T08:47:46;14.10;;;11.20;;
9722;SDS011;4900;49.306;8.500;2024-03-02T08:50:11;13.38;;;10.75;;
9722;SDS011;4900;49.306;8.500;2024-03-02T08:52:37;12.90;;;10.15;;
9722;SDS011;4900;49.306;8.500;2024-03-02T08:55:03;11.77;;;9.32;;
9722;SDS011;4900;49.306;8.500;2024-03-02T08:57:28;11.82;;;9.45;;
9722;SDS011;4900;49.306;8.500;2024-03-02T08:59:54;11.02;;;8.70;;
9722;SDS011;4900;49.306;8.500;2024-03-02T09:02:19;11.80;;;8.65;;
9722;SDS011;4900;49.306;8.500;2024-03-02T09:04:45;11.18;;;8.60;;
9722;SDS011;4900;49.306;8.500;2024-03-02T09:07:11;11.70;;;9.00;;
9722;SDS011;4900;49.306;8.500;2024-03-02T09:09:36;11.18;;;8.73;;
9722;SDS011;4900;49.306;8.500;2024-03-02T09:12:03;11.90;;;8.95;;
9722;SDS011;4900;49.306;8.500;2024-03-02T09:14:30;9.48;;;8.40;;
9722;SDS011;4900;49.306;8.500;2024-03-02T09:16:55;9.73;;;8.50;;
9722;SDS011;4900;49.306;8.500;2024-03-02T09:19:21;10.10;;;8.25;;
9722;SDS011;4900;49.306;8.500;2024-03-02T09:21:46;9.38;;;8.05;;
9722;SDS011;4900;49.306;8.500;2024-03-02T09:24:12;9.88;;;7.45;;
9722;SDS011;4900;49.306;8.500;2024-03-02T09:26:37;10.02;;;8.32;;
9722;SDS011;4900;49.306;8.500;2024-03-02T09:29:03;8.70;;;7.80;;
9722;SDS011;4900;49.306;8.500;2024-03-02T09:31:28;9.45;;;7.93;;
9722;SDS011;4900;49.306;8.500;2024-03-02T09:33:54;9.20;;;7.50;;
9722;SDS011;4900;49.306;8.500;2024-03-02T09:36:20;8.15;;;7.25;;
9722;SDS011;4900;49.306;8.500;2024-03-02T09:38:46;10.00;;;7.65;;
9722;SDS011;4900;49.306;8.500;2024-03-02T09:41:12;10.07;;;7.82;;
9722;SDS011;4900;49.306;8.500;2024-03-02T09:43:38;7.30;;;6.30;;
9722;SDS011;4900;49.306;8.500;2024-03-02T09:46:03;8.77;;;7.25;;
9722;SDS011;4900;49.306;8.500;2024-03-02T09:48:29;8.15;;;6.93;;
9722;SDS011;4900;49.306;8.500;2024-03-02T09:50:54;7.95;;;6.88;;
9722;SDS011;4900;49.306;8.500;2024-03-02T09:53:20;7.50;;;6.60;;
9722;SDS011;4900;49.306;8.500;2024-03-02T09:55:47;7.28;;;6.35;;
9722;SDS011;4900;49.306;8.500;2024-03-02T09:58:12;7.88;;;6.80;;
9722;SDS011;4900;49.306;8.500;2024-03-02T10:00:38;8.00;;;6.72;;
9722;SDS011;4900;49.306;8.500;2024-03-02T10:03:03;8.43;;;6.65;;
9722;SDS011;4900;49.306;8.500;2024-03-02T10:05:30;7.82;;;5.95;;
9722;SDS011;4900;49.306;8.500;2024-03-02T10:07:59;7.60;;;6.10;;
9722;SDS011;4900;49.306;8.500;2024-03-02T10:10:34;7.05;;;6.28;;
9722;SDS011;4900;49.306;8.500;2024-03-02T10:13:08;7.43;;;6.63;;
9722;SDS011;4900;49.306;8.500;2024-03-02T10:15:34;9.25;;;6.63;;
9722;SDS011;4900;49.306;8.500;2024-03-02T10:18:03;8.25;;;6.38;;
9722;SDS011;4900;49.306;8.500;2024-03-02T10:20:29;8.15;;;6.68;;
9722;SDS011;4900;49.306;8.500;2024-03-02T10:23:13;8.55;;;6.80;;
9722;SDS011;4900;49.306;8.500;2024-03-02T10:25:41;7.07;;;6.00;;
9722;SDS011;4900;49.306;8.500;2024-03-02T10:28:07;8.73;;;6.88;;
9722;SDS011;4900;49.306;8.500;2024-03-02T10:30:33;7.10;;;6.40;;
9722;SDS011;4900;49.306;8.500;2024-03-02T10:33:03;7.65;;;6.85;;
9722;SDS011;4900;49.306;8.500;2024-03-02T10:35:28;8.65;;;6.70;;
9722;SDS011;4900;49.306;8.500;2024-03-02T10:37:59;7.30;;;6.25;;
9722;SDS011;4900;49.306;8.500;2024-03-02T10:40:26;7.03;;;6.30;;
9722;SDS011;4900;49.306;8.500;2024-03-02T10:42:52;7.32;;;6.40;;
9722;SDS011;4900;49.306;8.500;2024-03-02T10:45:19;6.70;;;6.03;;
9722;SDS011;4900;49.306;8.500;2024-03-02T10:47:46;7.82;;;6.82;;
9722;SDS011;4900;49.306;8.500;2024-03-02T10:50:12;7.20;;;6.45;;
9722;SDS011;4900;49.306;8.500;2024-03-02T10:52:38;8.20;;;6.90;;
9722;SDS011;4900;49.306;8.500;2024-03-02T10:55:07;6.90;;;6.07;;
9722;SDS011;4900;49.306;8.500;2024-03-02T10:57:42;6.05;;;5.43;;
9722;SDS011;4900;49.306;8.500;2024-03-02T11:00:14;6.50;;;5.68;;
9722;SDS011;4900;49.306;8.500;2024-03-02T11:02:46;6.72;;;6.03;;
9722;SDS011;4900;49.306;8.500;2024-03-02T11:05:17;7.00;;;6.30;;
9722;SDS011;4900;49.306;8.500;2024-03-02T11:07:53;8.25;;;6.13;;
9722;SDS011;4900;49.306;8.500;2024-03-02T11:10:25;7.20;;;6.50;;
9722;SDS011;4900;49.306;8.500;2024-03-02T11:12:56;8.93;;;6.45;;
9722;SDS011;4900;49.306;8.500;2024-03-02T11:15:27;7.10;;;6.40;;
9722;SDS011;4900;49.306;8.500;2024-03-02T11:17:54;7.65;;;6.22;;
9722;SDS011;4900;49.306;8.500;2024-03-02T11:20:20;6.93;;;5.85;;
9722;SDS011;4900;49.306;8.500;2024-03-02T11:22:48;7.22;;;6.10;;
9722;SDS011;4900;49.306;8.500;2024-03-02T11:25:24;7.15;;;5.75;;
9722;SDS011;4900;49.306;8.500;2024-03-02T11:35:41;6.63;;;5.57;;
9722;SDS011;4900;49.306;8.500;2024-03-02T11:38:14;5.85;;;5.25;;
9722;SDS011;4900;49.306;8.500;2024-03-02T11:40:39;6.13;;;5.53;;
9722;SDS011;4900;49.306;8.500;2024-03-02T11:43:06;5.35;;;4.75;;
9722;SDS011;4900;49.306;8.500;2024-03-02T11:45:37;4.82;;;4.43;;
9722;SDS011;4900;49.306;8.500;2024-03-02T11:48:08;6.18;;;5.57;;
9722;SDS011;4900;49.306;8.500;2024-03-02T11:50:42;6.88;;;5.20;;
9722;SDS011;4900;49.306;8.500;2024-03-02T11:53:12;4.50;;;4.05;;
9722;SDS011;4900;49.306;8.500;2024-03-02T11:55:39;4.95;;;4.45;;
9722;SDS011;4900;49.306;8.500;2024-03-02T11:58:06;5.22;;;4.72;;
9722;SDS011;4900;49.306;8.500;2024-03-02T12:00:33;5.85;;;4.80;;
9722;SDS011;4900;49.306;8.500;2024-03-02T12:03:04;4.30;;;3.88;;
9722;SDS011;4900;49.306;8.500;2024-03-02T12:05:31;4.95;;;3.80;;
9722;SDS011;4900;49.306;8.500;2024-03-02T12:07:57;5.63;;;3.72;;
9722;SDS011;4900;49.306;8.500;2024-03-02T12:10:24;4.90;;;4.20;;
9722;SDS011;4900;49.306;8.500;2024-03-02T12:13:03;4.20;;;3.80;;
9722;SDS011;4900;49.306;8.500;2024-03-02T12:15:34;5.05;;;4.40;;
9722;SDS011;4900;49.306;8.500;2024-03-02T12:18:02;4.07;;;3.67;;
9722;SDS011;4900;49.306;8.500;2024-03-02T12:20:28;4.60;;;4.03;;
9722;SDS011;4900;49.306;8.500;2024-03-02T12:22:57;4.25;;;3.85;;
9722;SDS011;4900;49.306;8.500;2024-03-02T12:25:24;4.15;;;3.75;;
9722;SDS011;4900;49.306;8.500;2024-03-02T12:27:52;4.35;;;3.75;;
9722;SDS011;4900;49.306;8.500;2024-03-02T12:30:20;3.75;;;3.40;;
9722;SDS011;4900;49.306;8.500;2024-03-02T12:32:47;4.22;;;3.83;;
9722;SDS011;4900;49.306;8.500;2024-03-02T12:35:13;4.38;;;3.50;;
9722;SDS011;4900;49.306;8.500;2024-03-02T12:37:43;4.03;;;2.80;;
9722;SDS011;4900;49.306;8.500;2024-03-02T12:40:09;3.58;;;2.80;;
9722;SDS011;4900;49.306;8.500;2024-03-02T12:42:39;3.60;;;3.20;;
9722;SDS011;4900;49.306;8.500;2024-03-02T12:45:08;3.65;;;3.28;;
9722;SDS011;4900;49.306;8.500;2024-03-02T12:47:34;3.88;;;3.47;;
9722;SDS011;4900;49.306;8.500;2024-03-02T12:50:00;3.80;;;3.50;;
9722;SDS011;4900;49.306;8.500;2024-03-02T12:52:26;3.70;;;3.40;;
9722;SDS011;4900;49.306;8.500;2024-03-02T12:54:52;3.55;;;3.25;;
9722;SDS011;4900;49.306;8.500;2024-03-02T12:57:24;4.38;;;3.95;;
9722;SDS011;4900;49.306;8.500;2024-03-02T12:59:50;4.43;;;4.03;;
9722;SDS011;4900;49.306;8.500;2024-03-02T13:02:18;5.43;;;4.40;;
9722;SDS011;4900;49.306;8.500;2024-03-02T13:04:44;3.92;;;3.53;;
9722;SDS011;4900;49.306;8.500;2024-03-02T13:07:18;3.22;;;2.92;;
9722;SDS011;4900;49.306;8.500;2024-03-02T13:09:45;3.50;;;3.20;;
9722;SDS011;4900;49.306;8.500;2024-03-02T13:12:11;3.78;;;3.40;;
9722;SDS011;4900;49.306;8.500;2024-03-02T13:14:38;3.97;;;3.50;;
9722;SDS011;4900;49.306;8.500;2024-03-02T13:17:03;3.88;;;3.50;;
9722;SDS011;4900;49.306;8.500;2024-03-02T13:19:32;5.75;;;3.88;;
9722;SDS011;4900;49.306;8.500;2024-03-02T13:21:57;3.58;;;3.28;;
9722;SDS011;4900;49.306;8.500;2024-03-02T13:24:23;4.35;;;3.95;;
9722;SDS011;4900;49.306;8.500;2024-03-02T13:26:53;4.20;;;3.78;;
9722;SDS011;4900;49.306;8.500;2024-03-02T13:29:21;4.40;;;4.00;;
9722;SDS011;4900;49.306;8.500;2024-03-02T13:31:47;4.28;;;3.88;;
9722;SDS011;4900;49.306;8.500;2024-03-02T13:34:12;4.18;;;3.78;;
9722;SDS011;4900;49.306;8.500;2024-03-02T13:36:38;4.22;;;3.83;;
9722;SDS011;4900;49.306;8.500;2024-03-02T13:39:04;4.18;;;3.72;;
9722;SDS011;4900;49.306;8.500;2024-03-02T13:41:35;4.22;;;3.72;;
9722;SDS011;4900;49.306;8.500;2024-03-02T13:44:01;3.95;;;3.65;;
9722;SDS011;4900;49.306;8.500;2024-03-02T13:46:27;3.50;;;3.17;;
9722;SDS011;4900;49.306;8.500;2024-03-02T13:48:53;4.05;;;3.13;;
9722;SDS011;4900;49.306;8.500;2024-03-02T13:51:19;3.95;;;3.55;;
9722;SDS011;4900;49.306;8.500;2024-03-02T13:53:45;3.97;;;3.58;;
9722;SDS011;4900;49.306;8.500;2024-03-02T13:56:10;4.15;;;3.22;;
9722;SDS011;4900;49.306;8.500;2024-03-02T13:58:37;3.45;;;3.03;;
9722;SDS011;4900;49.306;8.500;2024-03-02T14:01:02;4.63;;;3.30;;
9722;SDS011;4900;49.306;8.500;2024-03-02T14:03:29;3.50;;;3.03;;
9722;SDS011;4900;49.306;8.500;2024-03-02T14:05:56;3.22;;;2.40;;
9722;SDS011;4900;49.306;8.500;2024-03-02T14:08:21;3.53;;;2.80;;
9722;SDS011;4900;49.306;8.500;2024-03-02T14:10:47;3.33;;;3.00;;
9722;SDS011;4900;49.306;8.500;2024-03-02T14:13:12;3.10;;;2.80;;
9722;SDS011;4900;49.306;8.500;2024-03-02T14:15:38;3.67;;;2.70;;
9722;SDS011;4900;49.306;8.500;2024-03-02T14:18:05;3.03;;;2.72;;
9722;SDS011;4900;49.306;8.500;2024-03-02T14:20:31;3.30;;;2.70;;
9722;SDS011;4900;49.306;8.500;2024-03-02T14:22:58;3.17;;;2.80;;
9722;SDS011;4900;49.306;8.500;2024-03-02T14:25:24;3.83;;;2.20;;
9722;SDS011;4900;49.306;8.500;2024-03-02T14:27:50;2.50;;;2.30;;
9722;SDS011;4900;49.306;8.500;2024-03-02T14:30:17;2.75;;;2.10;;
9722;SDS011;4900;49.306;8.500;2024-03-02T14:32:42;3.38;;;2.33;;
9722;SDS011;4900;49.306;8.500;2024-03-02T14:35:08;2.05;;;1.85;;
9722;SDS011;4900;49.306;8.500;2024-03-02T14:37:36;2.65;;;2.17;;
9722;SDS011;4900;49.306;8.500;2024-03-02T14:40:07;2.38;;;2.00;;
9722;SDS011;4900;49.306;8.500;2024-03-02T14:42:34;2.40;;;2.05;;
9722;SDS011;4900;49.306;8.500;2024-03-02T14:45:01;2.10;;;1.70;;
9722;SDS011;4900;49.306;8.500;2024-03-02T14:47:29;2.88;;;1.77;;
9722;SDS011;4900;49.306;8.500;2024-03-02T14:49:54;2.00;;;1.73;;
9722;SDS011;4900;49.306;8.500;2024-03-02T14:52:20;2.97;;;1.60;;
9722;SDS011;4900;49.306;8.500;2024-03-02T14:54:46;2.05;;;1.80;;
9722;SDS011;4900;49.306;8.500;2024-03-02T14:57:12;2.42;;;2.13;;
9722;SDS011;4900;49.306;8.500;2024-03-02T14:59:37;2.20;;;1.70;;
9722;SDS011;4900;49.306;8.500;2024-03-02T15:02:03;1.70;;;1.60;;
9722;SDS011;4900;49.306;8.500;2024-03-02T15:04:29;2.10;;;1.60;;
9722;SDS011;4900;49.306;8.500;2024-03-02T15:06:55;1.60;;;1.50;;
9722;SDS011;4900;49.306;8.500;2024-03-02T15:09:21;1.60;;;1.50;;
9722;SDS011;4900;49.306;8.500;2024-03-02T15:11:46;2.47;;;1.40;;
9722;SDS011;4900;49.306;8.500;2024-03-02T15:14:12;1.95;;;1.50;;
9722;SDS011;4900;49.306;8.500;2024-03-02T15:16:37;2.03;;;1.50;;